sensor_id;sensor_type;location;lat;lon;timestamp;P1;durP1;ratioP1;P2;durP2;ratioP2
62673;SDS011;62269;47.594;17.638;2024-01-30T00:00:18;13.68;;;9.35;;
62673;SDS011;62269;47.594;17.638;2024-01-30T00:01:16;13.80;;;8.80;;
62673;SDS011;62269;47.594;17.638;2024-01-30T00:02:13;16.08;;;9.95;;
62673;SDS011;62269;47.594;17.638;2024-01-30T00:03:10;12.80;;;9.27;;
62673;SDS011;62269;47.594;17.638;2024-01-30T00:04:07;15.55;;;10.05;;
62673;SDS011;62269;47.594;17.638;2024-01-30T00:05:04;15.35;;;9.20;;
62673;SDS011;62269;47.594;17.638;2024-01-30T00:06:02;14.10;;;9.82;;
62673;SDS011;62269;47.594;17.638;2024-01-30T00:07:03;12.32;;;9.73;;
62673;SDS011;62269;47.594;17.638;2024-01-30T00:08:00;15.48;;;9.60;;
62673;SDS011;62269;47.594;17.638;2024-01-30T00:08:58;13.20;;;9.30;;
62673;SDS011;62269;47.594;17.638;2024-01-30T00:09:55;14.30;;;9.07;;
62673;SDS011;62269;47.594;17.638;2024-01-30T00:10:52;15.60;;;9.35;;
62673;SDS011;62269;47.594;17.638;2024-01-30T00:11:49;15.27;;;10.30;;
62673;SDS011;62269;47.594;17.638;2024-01-30T00:12:46;14.90;;;9.13;;
62673;SDS011;62269;47.594;17.638;2024-01-30T00:13:43;15.10;;;9.57;;
62673;SDS011;62269;47.594;17.638;2024-01-30T00:14:43;15.15;;;10.00;;
62673;SDS011;62269;47.594;17.638;2024-01-30T00:15:41;16.20;;;11.75;;
62673;SDS011;62269;47.594;17.638;2024-01-30T00:16:38;13.95;;;9.88;;
62673;SDS011;62269;47.594;17.638;2024-01-30T00:17:37;13.98;;;9.57;;
62673;SDS011;62269;47.594;17.638;2024-01-30T00:18:35;15.50;;;9.35;;
62673;SDS011;62269;47.594;17.638;2024-01-30T00:19:32;12.55;;;8.95;;
62673;SDS011;62269;47.594;17.638;2024-01-30T00:20:29;12.30;;;9.23;;
62673;SDS011;62269;47.594;17.638;2024-01-30T00:21:26;15.20;;;10.07;;
62673;SDS011;62269;47.594;17.638;2024-01-30T00:22:23;13.70;;;8.70;;
62673;SDS011;62269;47.594;17.638;2024-01-30T00:23:20;13.45;;;9.25;;
62673;SDS011;62269;47.594;17.638;2024-01-30T00:24:17;11.68;;;8.93;;
62673;SDS011;62269;47.594;17.638;2024-01-30T00:25:14;14.57;;;9.38;;
62673;SDS011;62269;47.594;17.638;2024-01-30T00:26:12;11.25;;;8.55;;
62673;SDS011;62269;47.594;17.638;2024-01-30T00:27:09;21.37;;;10.18;;
62673;SDS011;62269;47.594;17.638;2024-01-30T00:28:06;12.27;;;9.45;;
62673;SDS011;62269;47.594;17.638;2024-01-30T00:29:03;18.20;;;10.18;;
62673;SDS011;62269;47.594;17.638;2024-01-30T00:30:00;13.07;;;9.63;;
62673;SDS011;62269;47.594;17.638;2024-01-30T00:30:57;17.27;;;10.48;;
62673;SDS011;62269;47.594;17.638;2024-01-30T00:31:54;12.93;;;8.95;;
62673;SDS011;62269;47.594;17.638;2024-01-30T00:32:51;16.37;;;9.25;;
62673;SDS011;62269;47.594;17.638;2024-01-30T00:33:49;12.77;;;8.98;;
62673;SDS011;62269;47.594;17.638;2024-01-30T00:34:46;13.10;;;9.45;;
62673;SDS011;62269;47.594;17.638;2024-01-30T00:35:43;13.70;;;9.10;;
62673;SDS011;62269;47.594;17.638;2024-01-30T00:36:40;14.82;;;10.00;;
62673;SDS011;62269;47.594;17.638;2024-01-30T00:37:37;12.93;;;9.10;;
62673;SDS011;62269;47.594;17.638;2024-01-30T00:38:34;13.75;;;8.95;;
62673;SDS011;62269;47.594;17.638;2024-01-30T00:39:32;10.40;;;8.48;;
62673;SDS011;62269;47.594;17.638;2024-01-30T00:40:29;13.20;;;9.30;;
62673;SDS011;62269;47.594;17.638;2024-01-30T00:41:26;12.93;;;9.30;;
62673;SDS011;62269;47.594;17.638;2024-01-30T00:42:23;14.60;;;9.20;;
62673;SDS011;62269;47.594;17.638;2024-01-30T00:43:20;17.87;;;10.00;;
62673;SDS011;62269;47.594;17.638;2024-01-30T00:44:18;14.63;;;9.93;;
62673;SDS011;62269;47.594;17.638;2024-01-30T00:45:15;12.32;;;8.80;;
62673;SDS011;62269;47.594;17.638;2024-01-30T00:46:13;14.18;;;8.90;;
62673;SDS011;62269;47.594;17.638;2024-01-30T00:47:10;14.05;;;9.07;;
62673;SDS011;62269;47.594;17.638;2024-01-30T00:48:07;12.57;;;8.98;;
62673;SDS011;62269;47.594;17.638;2024-01-30T00:49:04;13.18;;;8.63;;
62673;SDS011;62269;47.594;17.638;2024-01-30T00:50:01;15.65;;;9.35;;
62673;SDS011;62269;47.594;17.638;2024-01-30T00:50:58;15.82;;;9.80;;
62673;SDS011;62269;47.594;17.638;2024-01-30T00:51:55;25.67;;;10.02;;
62673;SDS011;62269;47.594;17.638;2024-01-30T00:52:52;14.07;;;9.70;;
62673;SDS011;62269;47.594;17.638;2024-01-30T00:53:49;13.15;;;9.23;;
62673;SDS011;62269;47.594;17.638;2024-01-30T00:54:46;13.20;;;9.98;;
62673;SDS011;62269;47.594;17.638;2024-01-30T00:55:43;12.57;;;9.30;;
62673;SDS011;62269;47.594;17.638;2024-01-30T00:56:40;16.08;;;10.10;;
62673;SDS011;62269;47.594;17.638;2024-01-30T00:57:38;15.93;;;9.70;;
62673;SDS011;62269;47.594;17.638;2024-01-30T00:58:35;16.27;;;9.90;;
62673;SDS011;62269;47.594;17.638;2024-01-30T00:59:32;15.75;;;9.55;;
62673;SDS011;62269;47.594;17.638;2024-01-30T01:00:29;13.43;;;10.10;;
62673;SDS011;62269;47.594;17.638;2024-01-30T01:01:26;13.57;;;9.43;;
62673;SDS011;62269;47.594;17.638;2024-01-30T01:02:23;14.82;;;9.70;;
62673;SDS011;62269;47.594;17.638;2024-01-30T01:03:20;15.05;;;9.88;;
62673;SDS011;62269;47.594;17.638;2024-01-30T01:04:17;13.15;;;8.95;;
62673;SDS011;62269;47.594;17.638;2024-01-30T01:05:15;11.52;;;9.10;;
62673;SDS011;62269;47.594;17.638;2024-01-30T01:06:12;15.63;;;10.70;;
62673;SDS011;62269;47.594;17.638;2024-01-30T01:07:09;19.45;;;10.73;;
62673;SDS011;62269;47.594;17.638;2024-01-30T01:08:07;11.50;;;9.40;;
62673;SDS011;62269;47.594;17.638;2024-01-30T01:09:05;24.00;;;11.95;;
62673;SDS011;62269;47.594;17.638;2024-01-30T01:10:02;14.98;;;10.45;;
62673;SDS011;62269;47.594;17.638;2024-01-30T01:11:00;18.83;;;10.02;;
62673;SDS011;62269;47.594;17.638;2024-01-30T01:11:57;13.98;;;10.13;;
62673;SDS011;62269;47.594;17.638;2024-01-30T01:12:54;14.45;;;9.55;;
62673;SDS011;62269;47.594;17.638;2024-01-30T01:13:52;16.95;;;10.88;;
62673;SDS011;62269;47.594;17.638;2024-01-30T01:14:49;15.88;;;10.02;;
62673;SDS011;62269;47.594;17.638;2024-01-30T01:15:46;14.68;;;10.07;;
62673;SDS011;62269;47.594;17.638;2024-01-30T01:16:43;14.13;;;10.23;;
62673;SDS011;62269;47.594;17.638;2024-01-30T01:17:40;14.93;;;10.07;;
62673;SDS011;62269;47.594;17.638;2024-01-30T01:18:37;12.98;;;9.18;;
62673;SDS011;62269;47.594;17.638;2024-01-30T01:19:35;12.63;;;9.50;;
62673;SDS011;62269;47.594;17.638;2024-01-30T01:20:32;15.13;;;9.57;;
62673;SDS011;62269;47.594;17.638;2024-01-30T01:21:29;11.57;;;8.90;;
62673;SDS011;62269;47.594;17.638;2024-01-30T01:22:26;11.35;;;8.50;;
62673;SDS011;62269;47.594;17.638;2024-01-30T01:23:24;12.40;;;9.77;;
62673;SDS011;62269;47.594;17.638;2024-01-30T01:24:21;13.48;;;9.18;;
62673;SDS011;62269;47.594;17.638;2024-01-30T01:25:18;15.18;;;10.05;;
62673;SDS011;62269;47.594;17.638;2024-01-30T01:26:15;14.80;;;10.15;;
62673;SDS011;62269;47.594;17.638;2024-01-30T01:27:12;13.90;;;10.90;;
62673;SDS011;62269;47.594;17.638;2024-01-30T01:28:09;15.80;;;10.02;;
62673;SDS011;62269;47.594;17.638;2024-01-30T01:29:06;14.18;;;10.57;;
62673;SDS011;62269;47.594;17.638;2024-01-30T01:30:09;14.30;;;10.60;;
62673;SDS011;62269;47.594;17.638;2024-01-30T01:31:06;14.25;;;10.18;;
62673;SDS011;62269;47.594;17.638;2024-01-30T01:32:03;14.70;;;9.82;;
62673;SDS011;62269;47.594;17.638;2024-01-30T01:33:01;14.35;;;10.38;;
62673;SDS011;62269;47.594;17.638;2024-01-30T01:33:59;14.25;;;9.55;;
62673;SDS011;62269;47.594;17.638;2024-01-30T01:34:56;15.18;;;10.07;;
62673;SDS011;62269;47.594;17.638;2024-01-30T01:35:53;14.77;;;9.43;;
62673;SDS011;62269;47.594;17.638;2024-01-30T01:36:51;12.63;;;9.65;;
62673;SDS011;62269;47.594;17.638;2024-01-30T01:37:48;11.75;;;9.63;;
62673;SDS011;62269;47.594;17.638;2024-01-30T01:38:51;17.40;;;9.82;;
62673;SDS011;62269;47.594;17.638;2024-01-30T01:39:48;14.05;;;9.40;;
62673;SDS011;62269;47.594;17.638;2024-01-30T01:40:45;15.10;;;9.75;;
62673;SDS011;62269;47.594;17.638;2024-01-30T01:41:42;16.73;;;9.68;;
62673;SDS011;62269;47.594;17.638;2024-01-30T01:42:40;12.13;;;9.82;;
62673;SDS011;62269;47.594;17.638;2024-01-30T01:43:37;13.70;;;9.85;;
62673;SDS011;62269;47.594;17.638;2024-01-30T01:44:35;16.10;;;10.30;;
62673;SDS011;62269;47.594;17.638;2024-01-30T01:45:32;14.32;;;9.70;;
62673;SDS011;62269;47.594;17.638;2024-01-30T01:46:30;17.40;;;10.23;;
62673;SDS011;62269;47.594;17.638;2024-01-30T01:47:29;13.35;;;10.07;;
62673;SDS011;62269;47.594;17.638;2024-01-30T01:48:26;18.27;;;10.55;;
62673;SDS011;62269;47.594;17.638;2024-01-30T01:49:24;16.77;;;9.98;;
62673;SDS011;62269;47.594;17.638;2024-01-30T01:50:22;15.48;;;10.57;;
62673;SDS011;62269;47.594;17.638;2024-01-30T01:51:20;14.35;;;10.13;;
62673;SDS011;62269;47.594;17.638;2024-01-30T01:52:17;14.52;;;9.93;;
62673;SDS011;62269;47.594;17.638;2024-01-30T01:53:14;17.75;;;10.57;;
62673;SDS011;62269;47.594;17.638;2024-01-30T01:54:12;16.60;;;10.82;;
62673;SDS011;62269;47.594;17.638;2024-01-30T01:55:10;15.55;;;10.85;;
62673;SDS011;62269;47.594;17.638;2024-01-30T01:56:08;16.10;;;10.20;;
62673;SDS011;62269;47.594;17.638;2024-01-30T01:57:05;11.93;;;9.90;;
62673;SDS011;62269;47.594;17.638;2024-01-30T01:58:02;12.73;;;10.05;;
62673;SDS011;62269;47.594;17.638;2024-01-30T01:59:00;13.20;;;10.18;;
62673;SDS011;62269;47.594;17.638;2024-01-30T02:00:03;14.63;;;9.98;;
62673;SDS011;62269;47.594;17.638;2024-01-30T02:01:01;14.70;;;10.05;;
62673;SDS011;62269;47.594;17.638;2024-01-30T02:01:59;15.27;;;10.32;;
62673;SDS011;62269;47.594;17.638;2024-01-30T02:02:57;16.33;;;11.68;;
62673;SDS011;62269;47.594;17.638;2024-01-30T02:03:54;15.20;;;10.27;;
62673;SDS011;62269;47.594;17.638;2024-01-30T02:04:51;14.48;;;10.10;;
62673;SDS011;62269;47.594;17.638;2024-01-30T02:05:49;16.77;;;11.02;;
62673;SDS011;62269;47.594;17.638;2024-01-30T02:06:47;14.30;;;9.98;;
62673;SDS011;62269;47.594;17.638;2024-01-30T02:07:44;16.00;;;10.02;;
62673;SDS011;62269;47.594;17.638;2024-01-30T02:08:41;16.87;;;10.05;;
62673;SDS011;62269;47.594;17.638;2024-01-30T02:09:39;14.63;;;10.68;;
62673;SDS011;62269;47.594;17.638;2024-01-30T02:10:36;13.23;;;10.05;;
62673;SDS011;62269;47.594;17.638;2024-01-30T02:11:33;14.70;;;10.57;;
62673;SDS011;62269;47.594;17.638;2024-01-30T02:12:30;12.73;;;10.40;;
62673;SDS011;62269;47.594;17.638;2024-01-30T02:13:27;15.88;;;10.70;;
62673;SDS011;62269;47.594;17.638;2024-01-30T02:14:24;14.40;;;10.48;;
62673;SDS011;62269;47.594;17.638;2024-01-30T02:15:26;13.62;;;9.82;;
62673;SDS011;62269;47.594;17.638;2024-01-30T02:16:23;14.70;;;9.85;;
62673;SDS011;62269;47.594;17.638;2024-01-30T02:17:20;15.65;;;10.10;;
62673;SDS011;62269;47.594;17.638;2024-01-30T02:18:19;14.52;;;10.68;;
62673;SDS011;62269;47.594;17.638;2024-01-30T02:19:18;19.05;;;11.10;;
62673;SDS011;62269;47.594;17.638;2024-01-30T02:20:16;13.77;;;9.57;;
62673;SDS011;62269;47.594;17.638;2024-01-30T02:21:15;14.52;;;10.15;;
62673;SDS011;62269;47.594;17.638;2024-01-30T02:22:13;17.52;;;9.75;;
62673;SDS011;62269;47.594;17.638;2024-01-30T02:23:11;19.20;;;11.60;;
62673;SDS011;62269;47.594;17.638;2024-01-30T02:24:09;15.02;;;10.07;;
62673;SDS011;62269;47.594;17.638;2024-01-30T02:25:06;17.83;;;10.07;;
62673;SDS011;62269;47.594;17.638;2024-01-30T02:26:04;13.27;;;10.32;;
62673;SDS011;62269;47.594;17.638;2024-01-30T02:27:01;15.55;;;8.90;;
62673;SDS011;62269;47.594;17.638;2024-01-30T02:27:58;15.68;;;10.73;;
62673;SDS011;62269;47.594;17.638;2024-01-30T02:28:55;14.68;;;9.65;;
62673;SDS011;62269;47.594;17.638;2024-01-30T02:29:52;13.60;;;9.90;;
62673;SDS011;62269;47.594;17.638;2024-01-30T02:30:49;15.25;;;10.02;;
62673;SDS011;62269;47.594;17.638;2024-01-30T02:31:47;14.48;;;9.98;;
62673;SDS011;62269;47.594;17.638;2024-01-30T02:32:44;15.95;;;10.35;;
62673;SDS011;62269;47.594;17.638;2024-01-30T02:33:41;16.33;;;9.73;;
62673;SDS011;62269;47.594;17.638;2024-01-30T02:34:38;13.62;;;10.50;;
62673;SDS011;62269;47.594;17.638;2024-01-30T02:35:36;14.60;;;9.93;;
62673;SDS011;62269;47.594;17.638;2024-01-30T02:36:33;15.27;;;10.27;;
62673;SDS011;62269;47.594;17.638;2024-01-30T02:37:31;18.33;;;10.45;;
62673;SDS011;62269;47.594;17.638;2024-01-30T02:38:28;14.57;;;10.35;;
62673;SDS011;62269;47.594;17.638;2024-01-30T02:39:26;16.60;;;10.38;;
62673;SDS011;62269;47.594;17.638;2024-01-30T02:40:25;18.42;;;11.15;;
62673;SDS011;62269;47.594;17.638;2024-01-30T02:41:24;16.20;;;11.02;;
62673;SDS011;62269;47.594;17.638;2024-01-30T02:42:22;16.27;;;11.20;;
62673;SDS011;62269;47.594;17.638;2024-01-30T02:43:20;16.00;;;10.77;;
62673;SDS011;62269;47.594;17.638;2024-01-30T02:44:18;13.95;;;10.40;;
62673;SDS011;62269;47.594;17.638;2024-01-30T02:45:17;15.85;;;9.98;;
62673;SDS011;62269;47.594;17.638;2024-01-30T02:46:15;14.35;;;10.50;;
62673;SDS011;62269;47.594;17.638;2024-01-30T02:47:13;17.48;;;10.80;;
62673;SDS011;62269;47.594;17.638;2024-01-30T02:48:10;16.23;;;10.85;;
62673;SDS011;62269;47.594;17.638;2024-01-30T02:49:08;16.65;;;10.73;;
62673;SDS011;62269;47.594;17.638;2024-01-30T02:50:08;18.45;;;11.63;;
62673;SDS011;62269;47.594;17.638;2024-01-30T02:51:07;19.30;;;11.60;;
62673;SDS011;62269;47.594;17.638;2024-01-30T02:52:04;17.42;;;11.30;;
62673;SDS011;62269;47.594;17.638;2024-01-30T02:53:02;20.83;;;13.20;;
62673;SDS011;62269;47.594;17.638;2024-01-30T02:54:00;16.25;;;11.93;;
62673;SDS011;62269;47.594;17.638;2024-01-30T02:54:58;23.70;;;12.50;;
62673;SDS011;62269;47.594;17.638;2024-01-30T02:55:55;18.40;;;12.35;;
62673;SDS011;62269;47.594;17.638;2024-01-30T02:56:53;18.25;;;12.25;;
62673;SDS011;62269;47.594;17.638;2024-01-30T02:57:52;21.55;;;13.32;;
62673;SDS011;62269;47.594;17.638;2024-01-30T02:58:49;21.58;;;13.30;;
62673;SDS011;62269;47.594;17.638;2024-01-30T02:59:48;23.73;;;13.88;;
62673;SDS011;62269;47.594;17.638;2024-01-30T03:00:45;22.65;;;12.98;;
62673;SDS011;62269;47.594;17.638;2024-01-30T03:01:43;20.25;;;13.15;;
62673;SDS011;62269;47.594;17.638;2024-01-30T03:02:41;18.87;;;13.25;;
62673;SDS011;62269;47.594;17.638;2024-01-30T03:03:39;22.08;;;13.55;;
62673;SDS011;62269;47.594;17.638;2024-01-30T03:04:40;22.75;;;14.90;;
62673;SDS011;62269;47.594;17.638;2024-01-30T03:05:38;18.45;;;13.88;;
62673;SDS011;62269;47.594;17.638;2024-01-30T03:06:37;21.45;;;14.52;;
62673;SDS011;62269;47.594;17.638;2024-01-30T03:07:35;24.10;;;15.15;;
62673;SDS011;62269;47.594;17.638;2024-01-30T03:08:33;22.95;;;14.27;;
62673;SDS011;62269;47.594;17.638;2024-01-30T03:09:31;22.58;;;15.30;;
62673;SDS011;62269;47.594;17.638;2024-01-30T03:10:30;22.65;;;14.52;;
62673;SDS011;62269;47.594;17.638;2024-01-30T03:11:27;22.37;;;14.13;;
62673;SDS011;62269;47.594;17.638;2024-01-30T03:12:25;23.25;;;14.15;;
62673;SDS011;62269;47.594;17.638;2024-01-30T03:13:23;23.87;;;15.18;;
62673;SDS011;62269;47.594;17.638;2024-01-30T03:14:21;23.83;;;16.83;;
62673;SDS011;62269;47.594;17.638;2024-01-30T03:15:19;28.05;;;16.83;;
62673;SDS011;62269;47.594;17.638;2024-01-30T03:16:17;28.73;;;15.63;;
62673;SDS011;62269;47.594;17.638;2024-01-30T03:17:15;24.92;;;16.30;;
62673;SDS011;62269;47.594;17.638;2024-01-30T03:18:13;22.15;;;14.48;;
62673;SDS011;62269;47.594;17.638;2024-01-30T03:19:11;24.48;;;16.08;;
62673;SDS011;62269;47.594;17.638;2024-01-30T03:20:09;27.62;;;16.10;;
62673;SDS011;62269;47.594;17.638;2024-01-30T03:21:07;29.35;;;16.70;;
62673;SDS011;62269;47.594;17.638;2024-01-30T03:22:05;24.50;;;15.82;;
62673;SDS011;62269;47.594;17.638;2024-01-30T03:23:03;27.50;;;15.68;;
62673;SDS011;62269;47.594;17.638;2024-01-30T03:24:00;24.67;;;16.30;;
62673;SDS011;62269;47.594;17.638;2024-01-30T03:24:58;26.27;;;18.23;;
62673;SDS011;62269;47.594;17.638;2024-01-30T03:25:57;25.00;;;16.83;;
62673;SDS011;62269;47.594;17.638;2024-01-30T03:26:54;22.33;;;15.48;;
62673;SDS011;62269;47.594;17.638;2024-01-30T03:27:51;24.58;;;15.65;;
62673;SDS011;62269;47.594;17.638;2024-01-30T03:28:48;25.33;;;15.82;;
62673;SDS011;62269;47.594;17.638;2024-01-30T03:29:45;25.27;;;16.15;;
62673;SDS011;62269;47.594;17.638;2024-01-30T03:30:42;25.23;;;15.57;;
62673;SDS011;62269;47.594;17.638;2024-01-30T03:31:39;25.25;;;16.75;;
62673;SDS011;62269;47.594;17.638;2024-01-30T03:32:37;25.35;;;16.58;;
62673;SDS011;62269;47.594;17.638;2024-01-30T03:33:34;20.08;;;13.65;;
62673;SDS011;62269;47.594;17.638;2024-01-30T03:34:31;21.00;;;14.60;;
62673;SDS011;62269;47.594;17.638;2024-01-30T03:35:28;19.75;;;13.85;;
62673;SDS011;62269;47.594;17.638;2024-01-30T03:36:25;22.50;;;14.68;;
62673;SDS011;62269;47.594;17.638;2024-01-30T03:37:22;22.13;;;14.32;;
62673;SDS011;62269;47.594;17.638;2024-01-30T03:38:20;21.20;;;14.38;;
62673;SDS011;62269;47.594;17.638;2024-01-30T03:39:17;24.37;;;15.38;;
62673;SDS011;62269;47.594;17.638;2024-01-30T03:40:14;22.08;;;14.57;;
62673;SDS011;62269;47.594;17.638;2024-01-30T03:41:12;21.42;;;14.32;;
62673;SDS011;62269;47.594;17.638;2024-01-30T03:42:09;19.77;;;13.15;;
62673;SDS011;62269;47.594;17.638;2024-01-30T03:43:06;24.10;;;14.38;;
62673;SDS011;62269;47.594;17.638;2024-01-30T03:44:03;22.20;;;13.80;;
62673;SDS011;62269;47.594;17.638;2024-01-30T03:45:00;19.98;;;14.63;;
62673;SDS011;62269;47.594;17.638;2024-01-30T03:45:58;25.55;;;14.35;;
62673;SDS011;62269;47.594;17.638;2024-01-30T03:46:56;23.15;;;13.73;;
62673;SDS011;62269;47.594;17.638;2024-01-30T03:47:53;21.67;;;13.98;;
62673;SDS011;62269;47.594;17.638;2024-01-30T03:48:50;20.10;;;14.13;;
62673;SDS011;62269;47.594;17.638;2024-01-30T03:49:48;21.75;;;13.98;;
62673;SDS011;62269;47.594;17.638;2024-01-30T03:50:46;20.23;;;14.55;;
62673;SDS011;62269;47.594;17.638;2024-01-30T03:51:44;21.55;;;14.30;;
62673;SDS011;62269;47.594;17.638;2024-01-30T03:52:44;20.33;;;14.77;;
62673;SDS011;62269;47.594;17.638;2024-01-30T03:53:43;25.45;;;13.93;;
62673;SDS011;62269;47.594;17.638;2024-01-30T03:54:42;24.75;;;13.98;;
62673;SDS011;62269;47.594;17.638;2024-01-30T03:55:40;20.25;;;13.45;;
62673;SDS011;62269;47.594;17.638;2024-01-30T03:56:38;20.48;;;13.10;;
62673;SDS011;62269;47.594;17.638;2024-01-30T03:57:36;20.35;;;13.23;;
62673;SDS011;62269;47.594;17.638;2024-01-30T03:58:34;17.52;;;12.82;;
62673;SDS011;62269;47.594;17.638;2024-01-30T03:59:32;20.37;;;14.40;;
62673;SDS011;62269;47.594;17.638;2024-01-30T04:00:30;19.87;;;13.35;;
62673;SDS011;62269;47.594;17.638;2024-01-30T04:01:28;23.50;;;14.23;;
62673;SDS011;62269;47.594;17.638;2024-01-30T04:02:27;22.13;;;13.40;;
62673;SDS011;62269;47.594;17.638;2024-01-30T04:03:25;19.75;;;13.48;;
62673;SDS011;62269;47.594;17.638;2024-01-30T04:04:24;20.75;;;14.80;;
62673;SDS011;62269;47.594;17.638;2024-01-30T04:05:22;17.90;;;12.25;;
62673;SDS011;62269;47.594;17.638;2024-01-30T04:06:20;22.10;;;13.75;;
62673;SDS011;62269;47.594;17.638;2024-01-30T04:07:18;18.10;;;12.52;;
62673;SDS011;62269;47.594;17.638;2024-01-30T04:08:20;18.42;;;13.15;;
62673;SDS011;62269;47.594;17.638;2024-01-30T04:09:18;21.70;;;13.07;;
62673;SDS011;62269;47.594;17.638;2024-01-30T04:10:16;22.17;;;13.70;;
62673;SDS011;62269;47.594;17.638;2024-01-30T04:11:14;21.62;;;12.60;;
62673;SDS011;62269;47.594;17.638;2024-01-30T04:12:13;18.35;;;12.52;;
62673;SDS011;62269;47.594;17.638;2024-01-30T04:13:11;21.27;;;13.48;;
62673;SDS011;62269;47.594;17.638;2024-01-30T04:14:09;19.17;;;12.13;;
62673;SDS011;62269;47.594;17.638;2024-01-30T04:15:08;19.80;;;13.18;;
62673;SDS011;62269;47.594;17.638;2024-01-30T04:16:06;22.42;;;14.23;;
62673;SDS011;62269;47.594;17.638;2024-01-30T04:17:04;18.17;;;12.98;;
62673;SDS011;62269;47.594;17.638;2024-01-30T04:18:02;17.58;;;12.70;;
62673;SDS011;62269;47.594;17.638;2024-01-30T04:19:00;20.60;;;13.55;;
62673;SDS011;62269;47.594;17.638;2024-01-30T04:19:58;19.90;;;12.55;;
62673;SDS011;62269;47.594;17.638;2024-01-30T04:20:56;17.55;;;13.32;;
62673;SDS011;62269;47.594;17.638;2024-01-30T04:21:54;21.08;;;12.82;;
62673;SDS011;62269;47.594;17.638;2024-01-30T04:22:54;21.77;;;12.45;;
62673;SDS011;62269;47.594;17.638;2024-01-30T04:23:53;17.02;;;12.73;;
62673;SDS011;62269;47.594;17.638;2024-01-30T04:24:51;16.70;;;12.45;;
62673;SDS011;62269;47.594;17.638;2024-01-30T04:25:49;19.17;;;12.48;;
62673;SDS011;62269;47.594;17.638;2024-01-30T04:26:46;18.48;;;12.88;;
62673;SDS011;62269;47.594;17.638;2024-01-30T04:27:44;17.23;;;11.15;;
62673;SDS011;62269;47.594;17.638;2024-01-30T04:28:43;15.77;;;11.98;;
62673;SDS011;62269;47.594;17.638;2024-01-30T04:29:42;25.20;;;14.30;;
62673;SDS011;62269;47.594;17.638;2024-01-30T04:30:39;17.27;;;12.68;;
62673;SDS011;62269;47.594;17.638;2024-01-30T04:31:37;18.02;;;12.30;;
62673;SDS011;62269;47.594;17.638;2024-01-30T04:32:35;16.37;;;12.00;;
62673;SDS011;62269;47.594;17.638;2024-01-30T04:33:34;18.02;;;12.15;;
62673;SDS011;62269;47.594;17.638;2024-01-30T04:34:31;20.08;;;12.32;;
62673;SDS011;62269;47.594;17.638;2024-01-30T04:35:29;18.33;;;12.15;;
62673;SDS011;62269;47.594;17.638;2024-01-30T04:36:28;18.42;;;12.88;;
62673;SDS011;62269;47.594;17.638;2024-01-30T04:37:25;19.95;;;12.60;;
62673;SDS011;62269;47.594;17.638;2024-01-30T04:38:25;18.45;;;12.15;;
62673;SDS011;62269;47.594;17.638;2024-01-30T04:39:23;18.40;;;11.35;;
62673;SDS011;62269;47.594;17.638;2024-01-30T04:40:21;19.52;;;11.68;;
62673;SDS011;62269;47.594;17.638;2024-01-30T04:41:18;17.75;;;12.02;;
62673;SDS011;62269;47.594;17.638;2024-01-30T04:42:17;20.02;;;12.15;;
62673;SDS011;62269;47.594;17.638;2024-01-30T04:43:15;15.55;;;11.98;;
62673;SDS011;62269;47.594;17.638;2024-01-30T04:44:16;18.62;;;12.05;;
62673;SDS011;62269;47.594;17.638;2024-01-30T04:45:14;19.37;;;11.48;;
62673;SDS011;62269;47.594;17.638;2024-01-30T04:46:14;16.92;;;11.35;;
62673;SDS011;62269;47.594;17.638;2024-01-30T04:47:12;19.20;;;11.40;;
62673;SDS011;62269;47.594;17.638;2024-01-30T04:48:10;13.82;;;11.35;;
62673;SDS011;62269;47.594;17.638;2024-01-30T04:49:08;16.17;;;11.38;;
62673;SDS011;62269;47.594;17.638;2024-01-30T04:50:08;14.38;;;11.48;;
62673;SDS011;62269;47.594;17.638;2024-01-30T04:51:07;20.08;;;12.57;;
62673;SDS011;62269;47.594;17.638;2024-01-30T04:52:05;18.48;;;11.30;;
62673;SDS011;62269;47.594;17.638;2024-01-30T04:53:03;17.48;;;12.05;;
62673;SDS011;62269;47.594;17.638;2024-01-30T04:54:02;19.30;;;13.43;;
62673;SDS011;62269;47.594;17.638;2024-01-30T04:55:00;17.12;;;12.37;;
62673;SDS011;62269;47.594;17.638;2024-01-30T04:55:58;15.50;;;10.88;;
62673;SDS011;62269;47.594;17.638;2024-01-30T04:56:56;17.05;;;12.20;;
62673;SDS011;62269;47.594;17.638;2024-01-30T04:57:55;15.93;;;11.48;;
62673;SDS011;62269;47.594;17.638;2024-01-30T04:58:53;20.48;;;11.93;;
62673;SDS011;62269;47.594;17.638;2024-01-30T04:59:51;16.48;;;11.10;;
62673;SDS011;62269;47.594;17.638;2024-01-30T05:00:49;17.95;;;11.75;;
62673;SDS011;62269;47.594;17.638;2024-01-30T05:01:48;18.33;;;11.40;;
62673;SDS011;62269;47.594;17.638;2024-01-30T05:02:46;13.82;;;11.50;;
62673;SDS011;62269;47.594;17.638;2024-01-30T05:03:46;16.77;;;11.38;;
62673;SDS011;62269;47.594;17.638;2024-01-30T05:04:44;14.40;;;10.88;;
62673;SDS011;62269;47.594;17.638;2024-01-30T05:05:42;15.88;;;10.77;;
62673;SDS011;62269;47.594;17.638;2024-01-30T05:06:40;14.15;;;10.88;;
62673;SDS011;62269;47.594;17.638;2024-01-30T05:07:38;16.90;;;11.50;;
62673;SDS011;62269;47.594;17.638;2024-01-30T05:08:38;15.02;;;11.23;;
62673;SDS011;62269;47.594;17.638;2024-01-30T05:09:35;16.75;;;11.77;;
62673;SDS011;62269;47.594;17.638;2024-01-30T05:10:33;16.58;;;11.20;;
62673;SDS011;62269;47.594;17.638;2024-01-30T05:11:31;14.52;;;10.80;;
62673;SDS011;62269;47.594;17.638;2024-01-30T05:12:33;16.33;;;10.70;;
62673;SDS011;62269;47.594;17.638;2024-01-30T05:13:31;14.77;;;11.05;;
62673;SDS011;62269;47.594;17.638;2024-01-30T05:14:29;12.60;;;9.85;;
62673;SDS011;62269;47.594;17.638;2024-01-30T05:15:27;17.70;;;10.88;;
62673;SDS011;62269;47.594;17.638;2024-01-30T05:16:25;14.80;;;9.80;;
62673;SDS011;62269;47.594;17.638;2024-01-30T05:17:23;16.23;;;9.95;;
62673;SDS011;62269;47.594;17.638;2024-01-30T05:18:21;15.75;;;10.18;;
62673;SDS011;62269;47.594;17.638;2024-01-30T05:19:19;19.20;;;11.90;;
62673;SDS011;62269;47.594;17.638;2024-01-30T05:21:18;15.00;;;10.45;;
62673;SDS011;62269;47.594;17.638;2024-01-30T05:22:15;14.75;;;9.95;;
62673;SDS011;62269;47.594;17.638;2024-01-30T05:23:16;13.82;;;10.15;;
62673;SDS011;62269;47.594;17.638;2024-01-30T05:24:14;12.37;;;10.10;;
62673;SDS011;62269;47.594;17.638;2024-01-30T05:25:14;13.73;;;9.95;;
62673;SDS011;62269;47.594;17.638;2024-01-30T05:26:12;14.52;;;10.32;;
62673;SDS011;62269;47.594;17.638;2024-01-30T05:27:10;15.77;;;10.90;;
62673;SDS011;62269;47.594;17.638;2024-01-30T05:28:10;18.23;;;10.93;;
62673;SDS011;62269;47.594;17.638;2024-01-30T05:29:08;15.23;;;10.18;;
62673;SDS011;62269;47.594;17.638;2024-01-30T05:30:06;15.52;;;10.50;;
62673;SDS011;62269;47.594;17.638;2024-01-30T05:31:04;15.82;;;11.05;;
62673;SDS011;62269;47.594;17.638;2024-01-30T05:32:02;15.70;;;11.12;;
62673;SDS011;62269;47.594;17.638;2024-01-30T05:33:02;13.90;;;10.60;;
62673;SDS011;62269;47.594;17.638;2024-01-30T05:34:01;16.20;;;11.85;;
62673;SDS011;62269;47.594;17.638;2024-01-30T05:35:00;15.73;;;10.50;;
62673;SDS011;62269;47.594;17.638;2024-01-30T05:35:58;17.37;;;10.38;;